createdAt,value
2018-01-24T00:00:15.836Z,965.82
2018-01-24T00:01:15.850Z,965.79
2018-01-24T00:02:15.862Z,965.79
2018-01-24T00:03:15.876Z,965.79
2018-01-24T00:04:15.889Z,965.83
2018-01-24T00:05:15.904Z,965.8
2018-01-24T00:06:15.917Z,965.72
2018-01-24T00:07:15.930Z,965.75
2018-01-24T00:08:15.945Z,965.77
2018-01-24T00:09:15.958Z,965.81
2018-01-24T00:10:15.972Z,965.87
2018-01-24T00:11:15.985Z,965.84
2018-01-24T00:12:16.009Z,965.89
2018-01-24T00:13:16.013Z,965.8
2018-01-24T00:14:16.027Z,965.82
2018-01-24T00:15:16.041Z,965.83
2018-01-24T00:16:16.054Z,965.89
2018-01-24T00:17:16.067Z,965.87
2018-01-24T00:18:16.081Z,965.87
2018-01-24T00:19:16.094Z,965.92
2018-01-24T00:20:16.106Z,965.9
2018-01-24T00:21:16.121Z,965.86
2018-01-24T00:22:16.137Z,965.87
2018-01-24T00:23:16.147Z,965.83
2018-01-24T00:24:16.161Z,965.83
2018-01-24T00:25:16.175Z,965.83
2018-01-24T00:26:16.189Z,965.82
2018-01-24T00:27:16.202Z,965.79
2018-01-24T00:28:16.215Z,965.81
2018-01-24T00:29:16.229Z,965.83
2018-01-24T00:30:16.243Z,965.9
2018-01-24T00:31:16.255Z,965.87
2018-01-24T00:32:16.269Z,965.89
2018-01-24T00:33:16.283Z,965.92
2018-01-24T00:34:16.300Z,965.9
2018-01-24T00:35:16.310Z,965.95
2018-01-24T00:36:16.324Z,965.95
2018-01-24T00:37:16.338Z,965.94
2018-01-24T00:38:16.352Z,965.94
2018-01-24T00:39:16.364Z,965.95
2018-01-24T00:40:16.379Z,965.93
2018-01-24T00:41:16.392Z,965.92
2018-01-24T00:42:16.406Z,965.88
2018-01-24T00:43:16.420Z,965.85
2018-01-24T00:44:16.434Z,965.86
2018-01-24T00:45:16.446Z,965.84
2018-01-24T00:46:16.460Z,965.84
2018-01-24T00:47:16.474Z,965.81
2018-01-24T00:48:16.492Z,965.84
2018-01-24T00:49:16.502Z,965.85
2018-01-24T00:50:16.515Z,965.86
2018-01-24T00:51:16.529Z,965.9
2018-01-24T00:52:16.542Z,965.9
2018-01-24T00:53:16.555Z,965.89
2018-01-24T00:54:16.569Z,965.89
2018-01-24T00:55:16.583Z,965.84
2018-01-24T00:56:16.596Z,965.87
2018-01-24T00:57:16.610Z,965.89
2018-01-24T00:58:16.623Z,965.87
2018-01-24T00:59:16.636Z,965.83
2018-01-24T01:00:16.657Z,965.89
2018-01-24T01:01:16.669Z,965.84
2018-01-24T01:02:16.679Z,965.88
2018-01-24T01:03:16.693Z,965.88
2018-01-24T01:04:16.706Z,965.85
2018-01-24T01:05:16.721Z,965.82
2018-01-24T01:06:16.734Z,965.82
2018-01-24T01:07:16.748Z,965.81
2018-01-24T01:08:16.762Z,965.8
2018-01-24T01:09:16.775Z,965.77
2018-01-24T01:10:16.789Z,965.75
2018-01-24T01:11:16.809Z,965.84
2018-01-24T01:12:16.815Z,965.81
2018-01-24T01:13:16.830Z,965.81
2018-01-24T01:14:16.844Z,965.71
2018-01-24T01:15:16.858Z,965.72
2018-01-24T01:16:16.872Z,965.73
2018-01-24T01:17:16.887Z,965.7
2018-01-24T01:18:16.899Z,965.7
2018-01-24T01:19:16.913Z,965.72
2018-01-24T01:20:16.928Z,965.69
2018-01-24T01:21:16.979Z,965.7
2018-01-24T01:22:16.955Z,965.68
2018-01-24T01:23:16.968Z,965.73
2018-01-24T01:24:16.990Z,965.72
2018-01-24T01:25:16.998Z,965.7
2018-01-24T01:26:17.011Z,965.66
2018-01-24T01:27:17.024Z,965.66
2018-01-24T01:28:17.039Z,965.64
2018-01-24T01:29:17.053Z,965.59
2018-01-24T01:30:17.066Z,965.62
2018-01-24T01:31:17.083Z,965.58
2018-01-24T01:32:17.094Z,965.53
2018-01-24T01:33:17.109Z,965.56
2018-01-24T01:34:17.126Z,965.5
2018-01-24T01:35:17.137Z,965.47
2018-01-24T01:36:17.151Z,965.44
2018-01-24T01:37:17.164Z,965.4
2018-01-24T01:38:17.179Z,965.46
2018-01-24T01:39:17.202Z,965.48
2018-01-24T01:40:17.207Z,965.47
2018-01-24T01:41:17.220Z,965.46
2018-01-24T01:42:17.235Z,965.45
2018-01-24T01:43:17.250Z,965.4
2018-01-24T01:44:17.263Z,965.42
2018-01-24T01:45:17.279Z,965.37
2018-01-24T01:46:17.293Z,965.37
2018-01-24T01:47:17.308Z,965.34
2018-01-24T01:48:17.320Z,965.39
2018-01-24T01:49:17.334Z,965.38
2018-01-24T01:50:17.349Z,965.41
2018-01-24T01:51:17.364Z,965.36
2018-01-24T01:52:17.378Z,965.36
2018-01-24T01:53:17.393Z,965.33
2018-01-24T01:54:17.406Z,965.31
2018-01-24T01:55:17.419Z,965.31
2018-01-24T01:56:17.435Z,965.29
2018-01-24T01:57:17.452Z,965.32
2018-01-24T01:58:17.464Z,965.32
2018-01-24T01:59:17.477Z,965.28
2018-01-24T02:00:17.490Z,965.27
2018-01-24T02:01:17.506Z,965.26
2018-01-24T02:02:17.521Z,965.27
2018-01-24T02:03:17.533Z,965.24
2018-01-24T02:04:17.548Z,965.28
2018-01-24T02:05:17.562Z,965.22
2018-01-24T02:06:17.581Z,965.21
2018-01-24T02:07:17.593Z,965.25
2018-01-24T02:08:17.622Z,965.27
2018-01-24T02:09:17.621Z,965.22
2018-01-24T02:10:17.633Z,965.19
2018-01-24T02:11:17.647Z,965.22
2018-01-24T02:12:17.662Z,965.2
2018-01-24T02:13:17.677Z,965.17
2018-01-24T02:14:17.690Z,965.21
2018-01-24T02:15:17.705Z,965.19
2018-01-24T02:16:17.719Z,965.17
2018-01-24T02:17:17.732Z,965.11
2018-01-24T02:18:17.747Z,965.07
2018-01-24T02:19:17.761Z,965.12
2018-01-24T02:20:17.776Z,965.17
2018-01-24T02:21:17.790Z,965.12
2018-01-24T02:22:17.812Z,965.12
2018-01-24T02:23:17.819Z,965.11
2018-01-24T02:24:17.833Z,965.16
2018-01-24T02:25:17.846Z,965.13
2018-01-24T02:26:17.860Z,965.11
2018-01-24T02:27:17.876Z,965.13
2018-01-24T02:28:17.889Z,965.11
2018-01-24T02:29:17.903Z,965.12
2018-01-24T02:30:17.920Z,965.03
2018-01-24T02:31:17.935Z,965.11
2018-01-24T02:32:17.946Z,965.04
2018-01-24T02:33:17.962Z,965
2018-01-24T02:34:17.975Z,965.07
2018-01-24T02:35:17.991Z,965
2018-01-24T02:36:18.005Z,965
2018-01-24T02:37:18.039Z,965.02
2018-01-24T02:38:18.034Z,965.04
2018-01-24T02:39:18.048Z,965
2018-01-24T02:40:18.062Z,965.08
2018-01-24T02:41:18.077Z,965.04
2018-01-24T02:42:18.091Z,965.03
2018-01-24T02:43:18.105Z,965.01
2018-01-24T02:44:18.119Z,965.03
2018-01-24T02:45:18.134Z,965.04
2018-01-24T02:46:18.149Z,965.05
2018-01-24T02:47:18.163Z,965.05
2018-01-24T02:48:18.180Z,965.04
2018-01-24T02:49:18.191Z,965.07
2018-01-24T02:50:18.205Z,965.06
2018-01-24T02:51:18.231Z,965.08
2018-01-24T02:52:18.235Z,965.1
2018-01-24T02:53:18.250Z,965.14
2018-01-24T02:54:18.264Z,965.12
2018-01-24T02:55:18.278Z,965.13
2018-01-24T02:56:18.292Z,965.15
2018-01-24T02:57:18.309Z,965.17
2018-01-24T02:58:18.323Z,965.22
2018-01-24T02:59:18.335Z,965.18
2018-01-24T03:00:18.352Z,965.24
2018-01-24T03:01:18.366Z,965.21
2018-01-24T03:02:18.380Z,965.25
2018-01-24T03:03:18.395Z,965.22
2018-01-24T03:04:18.410Z,965.25
2018-01-24T03:05:18.424Z,965.29
2018-01-24T03:06:18.457Z,965.23
2018-01-24T03:07:18.454Z,965.24
2018-01-24T03:08:18.469Z,965.25
2018-01-24T03:09:18.483Z,965.21
2018-01-24T03:10:18.497Z,965.25
2018-01-24T03:11:18.512Z,965.22
2018-01-24T03:12:18.527Z,965.21
2018-01-24T03:13:18.542Z,965.23
2018-01-24T03:14:18.557Z,965.23
2018-01-24T03:15:18.571Z,965.2
2018-01-24T03:16:18.585Z,965.19
2018-01-24T03:17:18.599Z,965.24
2018-01-24T03:18:18.616Z,965.19
2018-01-24T03:19:18.631Z,965.21
2018-01-24T03:20:18.650Z,965.17
2018-01-24T03:21:18.660Z,965.23
2018-01-24T03:22:18.677Z,965.23
2018-01-24T03:23:18.691Z,965.25
2018-01-24T03:24:18.705Z,965.24
2018-01-24T03:25:18.721Z,965.27
2018-01-24T03:26:18.735Z,965.29
2018-01-24T03:27:18.750Z,965.27
2018-01-24T03:28:18.765Z,965.3
2018-01-24T03:29:18.780Z,965.37
2018-01-24T03:30:18.795Z,965.4
2018-01-24T03:31:18.810Z,965.41
2018-01-24T03:32:18.826Z,965.43
2018-01-24T03:33:18.882Z,965.41
2018-01-24T03:34:18.855Z,965.41
2018-01-24T03:35:18.876Z,965.42
2018-01-24T03:36:18.886Z,965.39
2018-01-24T03:37:18.901Z,965.43
2018-01-24T03:38:18.915Z,965.44
2018-01-24T03:39:18.931Z,965.41
2018-01-24T03:40:18.947Z,965.44
2018-01-24T03:41:18.960Z,965.43
2018-01-24T03:42:18.976Z,965.46
2018-01-24T03:43:18.993Z,965.49
2018-01-24T03:44:19.007Z,965.52
2018-01-24T03:45:19.023Z,965.52
2018-01-24T03:46:19.047Z,965.57
2018-01-24T03:47:19.053Z,965.59
2018-01-24T03:48:19.069Z,965.64
2018-01-24T03:49:19.087Z,965.64
2018-01-24T03:50:19.105Z,965.61
2018-01-24T03:51:19.135Z,965.61
2018-01-24T03:52:19.130Z,965.64
2018-01-24T03:53:19.145Z,965.67
2018-01-24T03:54:19.160Z,965.65
2018-01-24T03:55:19.177Z,965.71
2018-01-24T03:56:19.190Z,965.71
2018-01-24T03:57:19.226Z,965.73
2018-01-24T03:58:19.222Z,965.7
2018-01-24T03:59:19.237Z,965.7
2018-01-24T04:00:19.255Z,965.62
2018-01-24T04:01:19.268Z,965.66
2018-01-24T04:02:19.285Z,965.64
2018-01-24T04:03:19.332Z,965.63
2018-01-24T04:04:19.390Z,965.58
2018-01-24T04:05:19.329Z,965.56
2018-01-24T04:06:19.367Z,965.49
2018-01-24T04:07:19.359Z,965.57
2018-01-24T04:08:19.374Z,965.53
2018-01-24T04:09:19.389Z,965.51
2018-01-24T04:10:19.404Z,965.53
2018-01-24T04:11:19.421Z,965.5
2018-01-24T04:12:19.434Z,965.48
2018-01-24T04:13:19.449Z,965.49
2018-01-24T04:14:19.463Z,965.44
2018-01-24T04:15:19.479Z,965.48
2018-01-24T04:16:19.497Z,965.43
2018-01-24T04:17:19.522Z,965.45
2018-01-24T04:18:19.526Z,965.43
2018-01-24T04:19:19.543Z,965.4
2018-01-24T04:20:19.556Z,965.4
2018-01-24T04:21:19.570Z,965.4
2018-01-24T04:22:19.587Z,965.39
2018-01-24T04:23:19.601Z,965.4
2018-01-24T04:24:19.617Z,965.41
2018-01-24T04:25:19.632Z,965.42
2018-01-24T04:26:19.648Z,965.41
2018-01-24T04:27:19.661Z,965.38
2018-01-24T04:28:19.678Z,965.4
2018-01-24T04:29:19.692Z,965.39
2018-01-24T04:30:19.707Z,965.37
2018-01-24T04:31:19.723Z,965.38
2018-01-24T04:32:19.738Z,965.33
2018-01-24T04:33:19.771Z,965.35
2018-01-24T04:34:19.767Z,965.36
2018-01-24T04:35:19.782Z,965.35
2018-01-24T04:36:19.797Z,965.35
2018-01-24T04:37:19.813Z,965.31
2018-01-24T04:38:19.827Z,965.31
2018-01-24T04:39:19.845Z,965.33
2018-01-24T04:40:19.856Z,965.31
2018-01-24T04:41:19.872Z,965.3
2018-01-24T04:42:19.886Z,965.28
2018-01-24T04:43:19.905Z,965.27
2018-01-24T04:44:19.916Z,965.29
2018-01-24T04:45:19.931Z,965.24
2018-01-24T04:46:19.946Z,965.27
2018-01-24T04:47:19.960Z,965.24
2018-01-24T04:48:19.997Z,965.22
2018-01-24T04:49:19.992Z,965.23
2018-01-24T04:50:20.006Z,965.21
2018-01-24T04:51:20.020Z,965.21
2018-01-24T04:52:20.035Z,965.22
2018-01-24T04:53:20.051Z,965.2
2018-01-24T04:54:20.066Z,965.18
2018-01-24T04:55:20.080Z,965.15
2018-01-24T04:56:20.094Z,965.16
2018-01-24T04:57:20.110Z,965.15
2018-01-24T04:58:20.124Z,965.14
2018-01-24T04:59:20.139Z,965.16
2018-01-24T05:00:20.154Z,965.12
2018-01-24T05:01:20.169Z,965.14
2018-01-24T05:02:20.188Z,965.18
2018-01-24T05:03:20.198Z,965.17
2018-01-24T05:04:20.214Z,965.18
2018-01-24T05:05:20.229Z,965.2
2018-01-24T05:06:20.242Z,965.15
2018-01-24T05:07:20.258Z,965.16
2018-01-24T05:08:20.272Z,965.15
2018-01-24T05:09:20.286Z,965.18
2018-01-24T05:10:20.301Z,965.18
2018-01-24T05:11:20.316Z,965.22
2018-01-24T05:12:20.332Z,965.2
2018-01-24T05:13:20.347Z,965.2
2018-01-24T05:14:20.363Z,965.19
2018-01-24T05:15:20.378Z,965.19
2018-01-24T05:16:20.392Z,965.19
2018-01-24T05:17:20.415Z,965.18
2018-01-24T05:18:20.422Z,965.18
2018-01-24T05:19:20.438Z,965.19
2018-01-24T05:20:20.452Z,965.22
2018-01-24T05:21:20.468Z,965.25
2018-01-24T05:22:20.482Z,965.22
2018-01-24T05:23:20.497Z,965.28
2018-01-24T05:24:20.519Z,965.32
2018-01-24T05:25:20.528Z,965.31
2018-01-24T05:26:20.544Z,965.29
2018-01-24T05:27:20.557Z,965.29
2018-01-24T05:28:20.574Z,965.3
2018-01-24T05:29:20.590Z,965.31
2018-01-24T05:30:20.606Z,965.31
2018-01-24T05:31:20.620Z,965.33
2018-01-24T05:32:20.635Z,965.31
2018-01-24T05:33:20.650Z,965.31
2018-01-24T05:34:20.666Z,965.3
2018-01-24T05:35:20.681Z,965.28
2018-01-24T05:36:20.695Z,965.3
2018-01-24T05:37:20.711Z,965.33
2018-01-24T05:38:20.726Z,965.28
2018-01-24T05:39:20.741Z,965.29
2018-01-24T05:40:20.757Z,965.29
2018-01-24T05:41:20.773Z,965.3
2018-01-24T05:42:20.786Z,965.24
2018-01-24T05:43:20.802Z,965.24
2018-01-24T05:44:20.818Z,965.24
2018-01-24T05:45:20.834Z,965.24
2018-01-24T05:46:20.856Z,965.26
2018-01-24T05:47:20.863Z,965.25
2018-01-24T05:48:20.877Z,965.22
2018-01-24T05:49:20.892Z,965.27
2018-01-24T05:50:20.909Z,965.29
2018-01-24T05:51:20.923Z,965.22
2018-01-24T05:52:20.938Z,965.24
2018-01-24T05:53:20.957Z,965.28
2018-01-24T05:54:20.969Z,965.29
2018-01-24T05:55:20.985Z,965.28
2018-01-24T05:56:21.016Z,965.3
2018-01-24T05:57:21.016Z,965.29
2018-01-24T05:58:21.031Z,965.27
2018-01-24T05:59:21.046Z,965.31
2018-01-24T06:00:21.062Z,965.31
2018-01-24T06:01:21.077Z,965.3
2018-01-24T06:02:21.092Z,965.28
2018-01-24T06:03:21.108Z,965.26
2018-01-24T06:04:21.156Z,965.25
2018-01-24T06:05:21.137Z,965.28
2018-01-24T06:06:21.154Z,965.22
2018-01-24T06:07:21.170Z,965.27
2018-01-24T06:08:21.185Z,965.26
2018-01-24T06:09:21.201Z,965.24
2018-01-24T06:10:21.215Z,965.26
2018-01-24T06:11:21.230Z,965.28
2018-01-24T06:12:21.244Z,965.29
2018-01-24T06:13:21.260Z,965.29
2018-01-24T06:14:21.277Z,965.26
2018-01-24T06:15:21.309Z,965.24
2018-01-24T06:16:21.306Z,965.25
2018-01-24T06:17:21.323Z,965.23
2018-01-24T06:18:21.370Z,965.27
2018-01-24T06:19:21.353Z,965.25
2018-01-24T06:20:21.368Z,965.26
2018-01-24T06:21:21.385Z,965.24
2018-01-24T06:22:21.399Z,965.26
2018-01-24T06:23:21.415Z,965.21
2018-01-24T06:24:21.430Z,965.17
2018-01-24T06:25:21.447Z,965.2
2018-01-24T06:26:21.465Z,965.15
2018-01-24T06:27:21.479Z,965.17
2018-01-24T06:28:21.493Z,965.17
2018-01-24T06:29:21.510Z,965.14
2018-01-24T06:30:21.537Z,965.11
2018-01-24T06:31:21.541Z,965.09
2018-01-24T06:32:21.557Z,965.12
2018-01-24T06:33:21.573Z,965.14
2018-01-24T06:34:21.588Z,965.12
2018-01-24T06:35:21.608Z,965.16
2018-01-24T06:36:21.621Z,965.13
2018-01-24T06:37:21.635Z,965.13
2018-01-24T06:38:21.652Z,965.12
2018-01-24T06:39:21.668Z,965.14
2018-01-24T06:40:21.681Z,965.13
2018-01-24T06:41:21.696Z,965.13
2018-01-24T06:42:21.713Z,965.18
2018-01-24T06:43:21.729Z,965.17
2018-01-24T06:44:21.743Z,965.2
2018-01-24T06:45:21.761Z,965.17
2018-01-24T06:46:21.774Z,965.22
2018-01-24T06:47:21.791Z,965.17
2018-01-24T06:48:21.804Z,965.18
2018-01-24T06:49:21.822Z,965.25
2018-01-24T06:50:21.837Z,965.26
2018-01-24T06:51:21.851Z,965.21
2018-01-24T06:52:21.888Z,965.22
2018-01-24T06:53:21.881Z,965.24
2018-01-24T06:54:21.898Z,965.29
2018-01-24T06:55:21.911Z,965.24
2018-01-24T06:56:21.928Z,965.28
2018-01-24T06:57:21.944Z,965.31
2018-01-24T06:58:21.958Z,965.35
2018-01-24T06:59:21.984Z,965.33
2018-01-24T07:00:21.989Z,965.35
2018-01-24T07:01:22.005Z,965.36
2018-01-24T07:02:22.019Z,965.36
2018-01-24T07:03:22.038Z,965.34
2018-01-24T07:04:22.050Z,965.37
2018-01-24T07:05:22.065Z,965.34
2018-01-24T07:06:22.081Z,965.3
2018-01-24T07:07:22.097Z,965.29
2018-01-24T07:08:22.112Z,965.28
2018-01-24T07:09:22.127Z,965.27
2018-01-24T07:10:22.142Z,965.31
2018-01-24T07:11:22.156Z,965.31
2018-01-24T07:12:22.174Z,965.27
2018-01-24T07:13:22.188Z,965.29
2018-01-24T07:14:22.204Z,965.25
2018-01-24T07:15:22.219Z,965.23
2018-01-24T07:16:22.237Z,965.23
2018-01-24T07:17:22.248Z,965.23
2018-01-24T07:18:22.264Z,965.23
2018-01-24T07:19:22.281Z,965.23
2018-01-24T07:20:22.296Z,965.21
2018-01-24T07:21:22.309Z,965.18
2018-01-24T07:22:22.325Z,965.14
2018-01-24T07:23:22.386Z,965.1
2018-01-24T07:24:22.356Z,965.11
2018-01-24T07:25:22.374Z,965.07
2018-01-24T07:26:22.388Z,965.04
2018-01-24T07:27:22.402Z,965.06
2018-01-24T07:28:22.441Z,965.08
2018-01-24T07:29:22.432Z,965.04
2018-01-24T07:30:22.449Z,965.02
2018-01-24T07:31:22.472Z,965.03
2018-01-24T07:32:22.478Z,964.97
2018-01-24T07:33:22.499Z,965
2018-01-24T07:34:22.512Z,965.03
2018-01-24T07:35:22.525Z,964.99
2018-01-24T07:36:22.548Z,965.01
2018-01-24T07:37:22.555Z,964.95
2018-01-24T07:38:22.571Z,965
2018-01-24T07:39:22.584Z,965
2018-01-24T07:40:22.600Z,964.96
2018-01-24T07:41:22.616Z,964.96
2018-01-24T07:42:22.630Z,964.99
2018-01-24T07:43:22.657Z,964.97
2018-01-24T07:44:22.660Z,964.99
2018-01-24T07:45:22.676Z,965.04
2018-01-24T07:46:22.690Z,965.02
2018-01-24T07:47:22.707Z,965.03
2018-01-24T07:48:22.722Z,965.01
2018-01-24T07:49:22.738Z,964.99
2018-01-24T07:50:22.752Z,965
2018-01-24T07:51:22.766Z,965
2018-01-24T07:52:22.782Z,965.01
2018-01-24T07:53:22.797Z,964.97
2018-01-24T07:54:22.812Z,965
2018-01-24T07:55:22.827Z,965
2018-01-24T07:56:22.843Z,965.01
2018-01-24T07:57:22.864Z,964.98
2018-01-24T07:58:22.874Z,964.98
2018-01-24T07:59:22.890Z,964.99
2018-01-24T08:00:22.905Z,965.03
2018-01-24T08:01:22.921Z,964.99
2018-01-24T08:02:22.935Z,965.05
2018-01-24T08:03:22.957Z,965.01
2018-01-24T08:04:22.966Z,965.03
2018-01-24T08:05:22.983Z,965
2018-01-24T08:06:22.999Z,964.95
2018-01-24T08:07:23.023Z,964.97
2018-01-24T08:08:23.030Z,964.98
2018-01-24T08:09:23.044Z,964.92
2018-01-24T08:10:23.060Z,964.97
2018-01-24T08:11:23.077Z,964.94
2018-01-24T08:12:23.095Z,964.95
2018-01-24T08:13:23.108Z,964.97
2018-01-24T08:14:23.122Z,964.89
2018-01-24T08:15:23.138Z,964.94
2018-01-24T08:16:23.153Z,964.91
2018-01-24T08:17:23.170Z,964.93
2018-01-24T08:18:23.185Z,964.92
2018-01-24T08:19:23.204Z,964.93
2018-01-24T08:20:23.217Z,964.88
2018-01-24T08:21:23.232Z,964.88
2018-01-24T08:22:23.249Z,964.92
2018-01-24T08:23:23.272Z,964.89
2018-01-24T08:24:23.281Z,964.91
2018-01-24T08:25:23.296Z,964.91
2018-01-24T08:26:23.311Z,964.92
2018-01-24T08:27:23.328Z,964.95
2018-01-24T08:28:23.343Z,964.93
2018-01-24T08:29:23.359Z,964.92
2018-01-24T08:30:23.375Z,964.98
2018-01-24T08:31:23.392Z,964.98
2018-01-24T08:32:23.408Z,964.98
2018-01-24T08:33:23.423Z,964.99
2018-01-24T08:34:23.439Z,964.96
2018-01-24T08:35:23.457Z,964.95
2018-01-24T08:36:23.471Z,964.97
2018-01-24T08:37:23.487Z,964.98
2018-01-24T08:38:23.505Z,964.99
2018-01-24T08:39:23.521Z,964.98
2018-01-24T08:40:23.538Z,964.9
2018-01-24T08:41:23.554Z,964.93
2018-01-24T08:42:23.570Z,964.96
2018-01-24T08:43:23.586Z,964.96
2018-01-24T08:44:23.602Z,964.94
2018-01-24T08:45:23.619Z,964.9
2018-01-24T08:46:23.636Z,964.91
2018-01-24T08:47:23.661Z,964.87
2018-01-24T08:48:23.667Z,964.87
2018-01-24T08:49:23.685Z,964.88
2018-01-24T08:50:23.701Z,964.89
2018-01-24T08:51:23.720Z,964.91
2018-01-24T08:52:23.734Z,964.88
2018-01-24T08:53:23.751Z,964.92
2018-01-24T08:54:23.767Z,964.9
2018-01-24T08:55:23.784Z,964.86
2018-01-24T08:56:23.800Z,964.86
2018-01-24T08:57:23.817Z,964.89
2018-01-24T08:58:23.835Z,964.85
2018-01-24T08:59:23.851Z,964.92
2018-01-24T09:00:23.867Z,964.87
2018-01-24T09:01:23.886Z,964.89
2018-01-24T09:02:23.903Z,964.9
2018-01-24T09:03:23.918Z,964.85
2018-01-24T09:04:23.936Z,964.84
2018-01-24T09:05:23.953Z,964.83
2018-01-24T09:06:23.974Z,964.79
2018-01-24T09:07:23.987Z,964.87
2018-01-24T09:08:24.005Z,964.84
2018-01-24T09:09:24.022Z,964.81
2018-01-24T09:10:24.040Z,964.83
2018-01-24T09:11:24.064Z,964.8
2018-01-24T09:12:24.074Z,964.83
2018-01-24T09:13:24.095Z,964.81
2018-01-24T09:14:24.108Z,964.75
2018-01-24T09:15:24.131Z,964.8
2018-01-24T09:16:24.144Z,964.81
2018-01-24T09:17:24.162Z,964.81
2018-01-24T09:18:24.190Z,964.77
2018-01-24T09:19:24.197Z,964.75
2018-01-24T09:20:24.215Z,964.76
2018-01-24T09:21:24.231Z,964.72
2018-01-24T09:22:24.248Z,964.75
2018-01-24T09:23:24.266Z,964.77
2018-01-24T09:24:24.286Z,964.81
2018-01-24T09:25:24.302Z,964.81
2018-01-24T09:26:24.320Z,964.86
2018-01-24T09:27:24.337Z,964.8
2018-01-24T09:28:24.356Z,964.83
2018-01-24T09:29:24.372Z,964.83
2018-01-24T09:30:24.389Z,964.85
2018-01-24T09:31:24.410Z,964.82
2018-01-24T09:32:24.428Z,964.81
2018-01-24T09:33:24.442Z,964.84
2018-01-24T09:34:24.460Z,964.89
2018-01-24T09:35:24.478Z,964.87
2018-01-24T09:36:24.496Z,964.85
2018-01-24T09:37:24.513Z,964.87
2018-01-24T09:38:24.531Z,964.85
2018-01-24T09:39:24.549Z,964.84
2018-01-24T09:40:24.569Z,964.84
2018-01-24T09:41:24.585Z,964.85
2018-01-24T09:42:24.614Z,964.85
2018-01-24T09:43:24.621Z,964.88
2018-01-24T09:44:24.639Z,964.83
2018-01-24T09:45:24.664Z,964.82
2018-01-24T09:46:24.676Z,964.83
2018-01-24T09:47:24.693Z,964.83
2018-01-24T09:48:24.713Z,964.8
2018-01-24T09:49:24.731Z,964.77
2018-01-24T09:50:24.749Z,964.8
2018-01-24T09:51:24.771Z,964.75
2018-01-24T09:52:24.786Z,964.72
2018-01-24T09:53:24.804Z,964.75
2018-01-24T09:54:24.821Z,964.73
2018-01-24T09:55:24.842Z,964.73
2018-01-24T09:56:24.859Z,964.67
2018-01-24T09:57:24.879Z,964.72
2018-01-24T09:58:24.898Z,964.67
2018-01-24T09:59:24.917Z,964.71
2018-01-24T10:00:24.935Z,964.67
2018-01-24T10:01:24.952Z,964.75
2018-01-24T10:02:24.975Z,964.71
2018-01-24T10:03:24.992Z,964.69
2018-01-24T10:04:25.010Z,964.72
2018-01-24T10:05:25.029Z,964.71
2018-01-24T10:06:25.048Z,964.67
2018-01-24T10:07:25.066Z,964.63
2018-01-24T10:08:25.087Z,964.63
2018-01-24T10:09:25.104Z,964.64
2018-01-24T10:10:25.125Z,964.68
2018-01-24T10:11:25.144Z,964.69
2018-01-24T10:12:25.161Z,964.73
2018-01-24T10:13:25.185Z,964.73
2018-01-24T10:14:25.201Z,964.74
2018-01-24T10:15:25.222Z,964.75
2018-01-24T10:16:25.242Z,964.76
2018-01-24T10:17:25.264Z,964.79
2018-01-24T10:18:25.287Z,964.78
2018-01-24T10:19:25.305Z,964.8
2018-01-24T10:20:25.326Z,964.79
2018-01-24T10:21:25.350Z,964.79
2018-01-24T10:22:25.373Z,964.78
2018-01-24T10:23:25.397Z,964.78
2018-01-24T10:24:25.419Z,964.77
2018-01-24T10:25:25.443Z,964.72
2018-01-24T10:26:25.490Z,964.75
2018-01-24T10:27:25.490Z,964.8
2018-01-24T10:28:25.516Z,964.77
2018-01-24T10:29:25.543Z,964.76
2018-01-24T10:30:25.568Z,964.75
2018-01-24T10:31:25.593Z,964.77
2018-01-24T10:32:25.619Z,964.74
2018-01-24T10:33:25.645Z,964.74
2018-01-24T10:34:25.671Z,964.68
2018-01-24T10:35:25.697Z,964.69
2018-01-24T10:36:25.724Z,964.66
2018-01-24T10:37:25.752Z,964.69
2018-01-24T10:38:25.781Z,964.7
2018-01-24T10:39:25.807Z,964.71
2018-01-24T10:40:25.836Z,964.73
2018-01-24T10:41:25.862Z,964.71
2018-01-24T10:42:25.888Z,964.71
2018-01-24T10:43:25.917Z,964.69
2018-01-24T10:44:25.946Z,964.72
2018-01-24T10:45:25.972Z,964.73
2018-01-24T10:46:26.002Z,964.71
2018-01-24T10:47:26.031Z,964.71
2018-01-24T10:48:26.061Z,964.74
2018-01-24T10:49:26.088Z,964.68
2018-01-24T10:50:26.117Z,964.69
2018-01-24T10:51:26.148Z,964.69
2018-01-24T10:52:26.177Z,964.72
2018-01-24T10:53:26.214Z,964.66
2018-01-24T10:54:26.236Z,964.59
2018-01-24T10:55:26.266Z,964.61
2018-01-24T10:56:26.294Z,964.59
2018-01-24T10:57:26.324Z,964.58
2018-01-24T10:58:26.365Z,964.56
2018-01-24T10:59:26.389Z,964.58
2018-01-24T11:00:26.425Z,964.54
2018-01-24T11:01:26.444Z,964.53
2018-01-24T11:02:26.476Z,964.51
2018-01-24T11:03:26.508Z,964.5
2018-01-24T11:04:26.537Z,964.48
2018-01-24T11:05:26.569Z,964.49
2018-01-24T11:06:26.602Z,964.49
2018-01-24T11:07:26.628Z,964.51
2018-01-24T11:08:26.659Z,964.5
2018-01-24T11:09:26.691Z,964.55
2018-01-24T11:10:26.724Z,964.54
2018-01-24T11:11:26.753Z,964.51
2018-01-24T11:12:26.786Z,964.52
2018-01-24T11:13:26.816Z,964.51
2018-01-24T11:14:26.863Z,964.49
2018-01-24T11:15:26.879Z,964.49
2018-01-24T11:16:26.912Z,964.5
2018-01-24T11:17:26.943Z,964.47
2018-01-24T11:18:26.975Z,964.49
2018-01-24T11:19:27.007Z,964.48
2018-01-24T11:20:27.040Z,964.49
2018-01-24T11:21:27.071Z,964.47
2018-01-24T11:22:27.103Z,964.42
2018-01-24T11:23:27.134Z,964.41
2018-01-24T11:24:27.168Z,964.43
2018-01-24T11:25:27.198Z,964.39
2018-01-24T11:26:27.231Z,964.38
2018-01-24T11:27:27.264Z,964.36
2018-01-24T11:28:27.299Z,964.35
2018-01-24T11:29:27.329Z,964.33
2018-01-24T11:30:27.368Z,964.34
2018-01-24T11:31:27.398Z,964.31
2018-01-24T11:32:27.428Z,964.29
2018-01-24T11:33:27.459Z,964.27
2018-01-24T11:34:27.491Z,964.28
2018-01-24T11:35:27.525Z,964.33
2018-01-24T11:36:27.559Z,964.26
2018-01-24T11:37:27.590Z,964.25
2018-01-24T11:38:27.622Z,964.25
2018-01-24T11:39:27.672Z,964.23
2018-01-24T11:40:27.688Z,964.18
2018-01-24T11:41:27.722Z,964.18
2018-01-24T11:42:27.755Z,964.2
2018-01-24T11:43:27.790Z,964.19
2018-01-24T11:44:27.822Z,964.19
2018-01-24T11:45:27.856Z,964.18
2018-01-24T11:46:27.889Z,964.19
2018-01-24T11:47:27.922Z,964.19
2018-01-24T11:48:27.956Z,964.18
2018-01-24T11:49:27.989Z,964.18
2018-01-24T11:50:28.024Z,964.18
2018-01-24T11:51:28.056Z,964.18
2018-01-24T11:52:28.090Z,964.21
2018-01-24T11:53:28.124Z,964.23
2018-01-24T11:54:28.159Z,964.17
2018-01-24T11:55:28.193Z,964.19
2018-01-24T11:56:28.226Z,964.18
2018-01-24T11:57:28.259Z,964.2
2018-01-24T11:58:28.294Z,964.19
2018-01-24T11:59:28.327Z,964.22
2018-01-24T12:00:28.364Z,964.2
2018-01-24T12:01:28.397Z,964.18
2018-01-24T12:02:28.431Z,964.2
2018-01-24T12:03:28.464Z,964.2
2018-01-24T12:04:28.503Z,964.19
2018-01-24T12:05:28.534Z,964.21
2018-01-24T12:06:28.568Z,964.18
2018-01-24T12:07:28.602Z,964.17
2018-01-24T12:08:28.639Z,964.17
2018-01-24T12:09:28.671Z,964.11
2018-01-24T12:10:28.707Z,964.16
2018-01-24T12:11:28.741Z,964.12
2018-01-24T12:12:28.778Z,964.12
2018-01-24T12:13:28.812Z,964.1
2018-01-24T12:14:28.849Z,964.11
2018-01-24T12:15:28.881Z,964.14
2018-01-24T12:16:28.915Z,964.1
2018-01-24T12:17:28.950Z,964.11
2018-01-24T12:18:28.985Z,964.12
2018-01-24T12:19:29.021Z,964.08
2018-01-24T12:20:29.053Z,964.09
2018-01-24T12:21:29.090Z,964.06
2018-01-24T12:22:29.125Z,964.04
2018-01-24T12:23:29.159Z,964.02
2018-01-24T12:24:29.194Z,963.99
2018-01-24T12:25:29.229Z,964.02
2018-01-24T12:26:29.263Z,964.01
2018-01-24T12:27:29.303Z,964.01
2018-01-24T12:28:29.332Z,964.01
2018-01-24T12:29:29.369Z,963.99
2018-01-24T12:30:29.404Z,963.99
2018-01-24T12:31:29.439Z,963.98